Time;durP1;ratioP1;P1;durP2;ratioP2;P2;SDS_P1;SDS_P2;PMS_P1;PMS_P2;Temp;Humidity;BMP_temperature;BMP_pressure;BME280_temperature;BME280_humidity;BME280_pressure;Samples;Min_cycle;Max_cycle;Signal;HPM_P1;HPM_P2
2021/01/05 00:00:20;;;;;;;2.13;0.85;;;2.90;92.00;;;;;;5111435;28;20027;-75
2021/01/05 00:02:46;;;;;;;1.13;0.60;;;2.80;92.00;;;;;;5129994;28;20385;-75
2021/01/05 00:05:12;;;;;;;1.25;0.90;;;2.80;92.00;;;;;;5111077;28;20044;-72
2021/01/05 00:07:38;;;;;;;1.38;0.82;;;2.80;92.00;;;;;;5129281;28;20395;-74
2021/01/05 00:10:06;;;;;;;0.80;0.63;;;2.80;92.00;;;;;;5129332;28;20091;-73
2021/01/05 00:12:31;;;;;;;1.10;0.70;;;2.80;92.00;;;;;;5129115;28;20047;-72
2021/01/05 00:14:57;;;;;;;1.48;0.82;;;2.80;92.00;;;;;;5129544;28;20039;-72
2021/01/05 00:17:23;;;;;;;1.25;0.85;;;2.80;92.00;;;;;;5129569;28;20122;-72
2021/01/05 00:19:49;;;;;;;1.67;0.80;;;2.80;92.00;;;;;;5109363;28;20036;-72
2021/01/05 00:22:17;;;;;;;1.02;0.80;;;2.80;92.00;;;;;;5128867;28;20040;-72
2021/01/05 00:24:43;;;;;;;1.33;0.80;;;2.80;92.00;;;;;;5128908;28;20128;-72
2021/01/05 00:27:09;;;;;;;1.10;0.70;;;2.80;92.00;;;;;;5129167;28;20039;-72
2021/01/05 00:29:35;;;;;;;1.10;0.70;;;2.80;92.00;;;;;;5128964;28;20039;-72
2021/01/05 00:32:15;;;;;;;1.52;0.77;;;2.80;92.00;;;;;;5110323;28;20110;-72
2021/01/05 00:34:43;;;;;;;1.02;0.57;;;2.80;92.00;;;;;;5110339;28;20071;-72
2021/01/05 00:37:09;;;;;;;1.42;0.82;;;2.80;92.00;;;;;;5129253;28;20066;-72
2021/01/05 00:39:35;;;;;;;1.05;0.70;;;2.80;92.00;;;;;;5110399;28;20400;-72
2021/01/05 00:42:01;;;;;;;1.10;0.70;;;2.80;92.00;;;;;;5110147;28;20051;-71
2021/01/05 00:44:27;;;;;;;0.98;0.75;;;2.80;92.00;;;;;;5115913;28;20085;-72
2021/01/05 00:46:52;;;;;;;0.90;0.68;;;2.70;92.00;;;;;;5114789;28;20032;-72
2021/01/05 00:49:18;;;;;;;1.40;0.80;;;2.80;92.10;;;;;;5096175;28;20489;-72
2021/01/05 00:51:44;;;;;;;1.20;0.70;;;2.70;92.00;;;;;;5114660;28;20089;-72
2021/01/05 00:54:10;;;;;;;1.25;0.90;;;2.80;92.10;;;;;;5114840;28;20507;-72
2021/01/05 00:56:36;;;;;;;1.00;0.77;;;2.80;92.10;;;;;;5115234;28;20114;-72
2021/01/05 00:59:02;;;;;;;1.33;0.80;;;2.80;92.00;;;;;;5114755;28;20039;-72
2021/01/05 01:01:28;;;;;;;1.27;0.77;;;2.80;92.00;;;;;;5114572;28;20051;-72
2021/01/05 01:03:54;;;;;;;2.08;1.10;;;2.80;92.00;;;;;;5114651;28;20088;-72
2021/01/05 01:06:20;;;;;;;1.08;0.75;;;2.80;92.00;;;;;;5114476;28;20071;-72
2021/01/05 01:08:46;;;;;;;1.15;0.82;;;2.80;92.00;;;;;;5095151;28;20040;-72
2021/01/05 01:11:13;;;;;;;1.17;0.75;;;2.80;92.00;;;;;;5114383;28;20455;-72
2021/01/05 01:13:39;;;;;;;1.67;0.90;;;2.80;92.00;;;;;;5114495;28;20059;-72
2021/01/05 01:16:05;;;;;;;1.15;0.70;;;2.80;92.00;;;;;;5114519;28;20084;-72
2021/01/05 01:18:32;;;;;;;1.13;0.80;;;2.80;92.00;;;;;;5114261;28;20043;-72
2021/01/05 01:20:58;;;;;;;1.50;0.90;;;2.80;92.00;;;;;;5114510;28;20036;-72
2021/01/05 01:23:23;;;;;;;2.35;0.90;;;2.80;92.00;;;;;;5114409;28;20054;-72
2021/01/05 01:25:49;;;;;;;2.28;1.08;;;2.80;92.00;;;;;;5114092;28;20081;-72
2021/01/05 01:28:15;;;;;;;1.50;0.80;;;2.80;92.00;;;;;;5114216;28;20058;-72
2021/01/05 01:30:41;;;;;;;1.40;0.70;;;2.90;92.10;;;;;;5114526;28;20087;-72
2021/01/05 01:33:07;;;;;;;1.90;0.90;;;2.80;92.00;;;;;;5114409;28;20043;-72
2021/01/05 01:35:33;;;;;;;1.15;0.90;;;2.80;92.00;;;;;;5114226;28;20054;-72
2021/01/05 01:37:59;;;;;;;1.38;0.85;;;2.80;92.00;;;;;;5114635;28;20122;-72
2021/01/05 01:40:34;;;;;;;0.90;0.63;;;2.80;92.30;;;;;;5095876;28;20070;-73
2021/01/05 01:43:01;;;;;;;1.75;1.05;;;2.80;92.00;;;;;;5114515;28;20043;-72
2021/01/05 01:45:27;;;;;;;1.80;1.08;;;2.80;92.00;;;;;;5114487;28;20169;-72
2021/01/05 01:47:54;;;;;;;1.45;0.90;;;2.90;92.00;;;;;;5113977;28;20502;-72
2021/01/05 01:50:27;;;;;;;0.85;0.70;;;2.90;92.00;;;;;;5114039;28;20047;-72
2021/01/05 01:53:25;;;;;;;0.98;0.70;;;2.70;92.00;;;;;;5095909;28;20040;-72
2021/01/05 01:56:26;;;;;;;1.42;0.90;;;2.80;92.00;;;;;;5094518;28;20500;-72
2021/01/05 01:58:59;;;;;;;1.27;0.85;;;2.80;92.00;;;;;;5113584;28;20067;-72
2021/01/05 02:01:41;;;;;;;0.93;0.68;;;2.80;92.00;;;;;;5114242;28;20385;-72
2021/01/05 02:04:25;;;;;;;1.20;0.70;;;2.80;92.00;;;;;;5113884;28;20039;-73
2021/01/05 02:07:21;;;;;;;1.13;0.73;;;2.80;92.00;;;;;;5113798;28;20042;-73
2021/01/05 02:10:17;;;;;;;1.42;0.90;;;2.80;92.00;;;;;;5110897;28;20036;-72
2021/01/05 02:13:18;;;;;;;1.05;0.70;;;2.80;92.00;;;;;;5095106;28;20047;-72
2021/01/05 02:15:57;;;;;;;1.08;0.65;;;2.80;92.00;;;;;;5113173;28;20107;-72
2021/01/05 02:18:40;;;;;;;1.25;0.93;;;2.80;92.00;;;;;;5113463;28;20386;-72
2021/01/05 02:21:22;;;;;;;1.30;0.77;;;2.80;92.00;;;;;;5113342;28;20145;-72
2021/01/05 02:24:18;;;;;;;1.48;0.80;;;2.80;92.00;;;;;;5097045;28;20079;-72
2021/01/05 02:26:51;;;;;;;1.65;0.80;;;2.80;91.90;;;;;;5113371;28;20046;-72
2021/01/05 02:29:24;;;;;;;1.50;0.93;;;2.80;91.90;;;;;;5113429;28;20115;-72
2021/01/05 02:32:21;;;;;;;1.13;0.70;;;2.80;91.90;;;;;;5113314;28;20036;-72
2021/01/05 02:35:06;;;;;;;1.17;0.70;;;2.70;91.90;;;;;;5113310;28;20067;-72
2021/01/05 02:37:52;;;;;;;1.05;0.73;;;2.80;92.00;;;;;;5091083;28;20499;-73
2021/01/05 02:40:33;;;;;;;0.82;0.50;;;2.80;92.00;;;;;;5113136;28;20055;-73
2021/01/05 02:43:23;;;;;;;0.85;0.60;;;2.80;91.90;;;;;;5113445;28;20067;-72
2021/01/05 02:46:30;;;;;;;1.08;0.68;;;2.80;92.00;;;;;;5113309;28;20036;-72
2021/01/05 02:49:10;;;;;;;0.77;0.55;;;2.90;92.00;;;;;;5096069;28;20047;-72
2021/01/05 02:51:59;;;;;;;1.17;0.70;;;2.80;92.00;;;;;;5112994;28;20134;-72
2021/01/05 02:54:53;;;;;;;1.27;0.77;;;2.90;92.00;;;;;;5113419;28;20035;-72
2021/01/05 02:57:52;;;;;;;1.17;0.70;;;2.80;91.90;;;;;;5092561;28;20040;-72
2021/01/05 03:00:53;;;;;;;1.40;0.73;;;2.90;92.00;;;;;;5113055;28;20044;-73
2021/01/05 03:03:39;;;;;;;1.27;0.70;;;2.90;91.90;;;;;;5112771;28;20043;-72
2021/01/05 03:06:26;;;;;;;0.85;0.65;;;2.90;91.90;;;;;;5112477;28;20507;-72
2021/01/05 03:09:13;;;;;;;1.13;0.60;;;2.90;91.90;;;;;;5112692;28;20548;-72
2021/01/05 03:12:05;;;;;;;1.23;0.85;;;3.00;92.00;;;;;;5112827;28;20401;-72
2021/01/05 03:14:54;;;;;;;1.52;0.90;;;2.90;91.90;;;;;;5097890;28;20127;-72
2021/01/05 03:17:30;;;;;;;1.52;0.80;;;2.90;91.90;;;;;;5094305;28;20568;-72
2021/01/05 03:20:12;;;;;;;2.25;1.30;;;2.90;91.90;;;;;;5110101;28;20085;-72
2021/01/05 03:22:47;;;;;;;1.27;0.85;;;2.90;91.90;;;;;;5094222;28;20046;-73
2021/01/05 03:25:15;;;;;;;1.00;0.60;;;2.90;91.90;;;;;;5094214;28;20047;-72
2021/01/05 03:27:41;;;;;;;1.73;0.80;;;2.90;91.90;;;;;;5092921;28;20039;-72
2021/01/05 03:30:21;;;;;;;1.83;1.08;;;2.90;91.90;;;;;;5094082;28;20084;-73
2021/01/05 03:32:47;;;;;;;1.42;0.98;;;2.90;91.90;;;;;;5093152;28;20127;-72
2021/01/05 03:35:12;;;;;;;1.63;0.80;;;2.90;91.90;;;;;;5112378;28;20067;-72
2021/01/05 03:37:38;;;;;;;2.33;1.20;;;2.90;91.90;;;;;;5094294;28;20035;-72
2021/01/05 03:40:04;;;;;;;2.55;1.00;;;2.90;91.90;;;;;;5112541;28;20050;-71
2021/01/05 03:42:30;;;;;;;2.05;0.95;;;2.90;91.90;;;;;;5112440;28;20039;-72
2021/01/05 03:44:56;;;;;;;1.90;0.95;;;2.90;91.90;;;;;;5112201;28;20450;-71
2021/01/05 03:47:22;;;;;;;1.40;0.80;;;2.90;91.90;;;;;;5112227;28;20374;-72
2021/01/05 03:49:47;;;;;;;1.73;1.05;;;2.90;91.90;;;;;;5112519;28;20397;-72
2021/01/05 03:52:14;;;;;;;1.80;1.00;;;3.00;91.90;;;;;;5112264;28;20043;-72
2021/01/05 03:54:40;;;;;;;2.55;1.00;;;2.90;91.90;;;;;;5094022;28;20397;-72
2021/01/05 03:57:05;;;;;;;2.08;1.10;;;2.90;91.90;;;;;;5112686;28;20040;-72
2021/01/05 03:59:31;;;;;;;2.25;1.20;;;2.90;91.90;;;;;;5112609;28;20483;-72
2021/01/05 04:01:57;;;;;;;1.73;0.90;;;3.00;91.90;;;;;;5094029;28;20051;-72
2021/01/05 04:04:23;;;;;;;1.60;1.00;;;2.80;91.90;;;;;;5112523;28;20123;-72
2021/01/05 04:06:48;;;;;;;1.52;0.88;;;2.90;91.90;;;;;;5111980;28;20043;-72
2021/01/05 04:09:15;;;;;;;2.00;1.13;;;2.90;91.90;;;;;;5112561;28;20384;-73
2021/01/05 04:11:41;;;;;;;1.75;0.90;;;3.00;92.00;;;;;;5112379;28;20412;-72
2021/01/05 04:14:06;;;;;;;1.42;1.00;;;3.00;92.00;;;;;;5093849;28;20050;-72
2021/01/05 04:16:32;;;;;;;1.90;1.10;;;2.80;91.90;;;;;;5093535;28;20088;-72
2021/01/05 04:18:59;;;;;;;2.13;1.08;;;2.80;91.90;;;;;;5113634;28;20481;-72
2021/01/05 04:21:25;;;;;;;2.00;1.00;;;2.90;92.00;;;;;;5115352;28;20046;-72
2021/01/05 04:23:51;;;;;;;2.33;1.20;;;2.90;91.90;;;;;;5115305;28;20035;-72
2021/01/05 04:26:16;;;;;;;2.30;1.13;;;2.90;91.90;;;;;;5095342;28;20486;-72
2021/01/05 04:28:42;;;;;;;1.73;1.10;;;2.90;91.90;;;;;;5115361;28;20039;-71
2021/01/05 04:31:08;;;;;;;2.92;1.40;;;2.90;91.90;;;;;;5115244;28;20039;-72
2021/01/05 04:33:33;;;;;;;1.27;0.93;;;2.90;91.90;;;;;;5114977;28;20061;-72
2021/01/05 04:35:59;;;;;;;2.55;1.50;;;2.90;91.90;;;;;;5096711;28;20046;-72
2021/01/05 04:38:25;;;;;;;1.55;1.10;;;2.90;91.90;;;;;;5115340;28;21201;-72
2021/01/05 04:40:52;;;;;;;2.58;1.40;;;2.90;91.90;;;;;;5115069;28;20458;-72
2021/01/05 04:43:40;;;;;;;2.25;1.30;;;2.90;91.90;;;;;;5115015;28;20082;-72
2021/01/05 04:46:26;;;;;;;2.15;1.30;;;2.90;91.90;;;;;;5114793;28;20036;-72
2021/01/05 04:49:10;;;;;;;2.17;1.23;;;2.90;92.20;;;;;;5115049;28;20039;-72
2021/01/05 04:51:45;;;;;;;1.92;0.98;;;2.80;91.90;;;;;;5114748;28;20104;-73
2021/01/05 04:54:20;;;;;;;1.88;1.05;;;2.90;91.90;;;;;;5095808;28;20043;-72
2021/01/05 04:57:08;;;;;;;1.77;1.10;;;2.90;91.90;;;;;;5115323;28;20100;-72
2021/01/05 04:59:43;;;;;;;1.42;0.93;;;2.90;91.90;;;;;;5096486;28;20379;-72
2021/01/05 05:02:35;;;;;;;1.45;1.00;;;2.90;91.90;;;;;;5114896;28;20036;-72
2021/01/05 05:05:21;;;;;;;1.48;0.85;;;2.90;91.90;;;;;;5114769;28;20402;-73
2021/01/05 05:08:17;;;;;;;1.27;0.80;;;3.00;92.00;;;;;;5114829;28;20059;-72
2021/01/05 05:10:58;;;;;;;1.13;0.52;;;2.90;91.90;;;;;;5099986;28;20040;-71
2021/01/05 05:13:53;;;;;;;1.20;0.75;;;3.00;91.90;;;;;;5115101;28;20443;-72
2021/01/05 05:16:44;;;;;;;0.80;0.70;;;3.00;91.90;;;;;;5114982;28;20036;-72
2021/01/05 05:19:32;;;;;;;1.30;0.80;;;2.90;91.90;;;;;;5114867;28;20546;-72
2021/01/05 05:22:27;;;;;;;1.05;0.60;;;2.90;91.90;;;;;;5114639;28;20050;-72
2021/01/05 05:24:59;;;;;;;1.33;0.80;;;2.90;92.00;;;;;;5114594;28;20082;-72
2021/01/05 05:27:53;;;;;;;1.90;0.98;;;2.90;92.20;;;;;;5114852;28;20035;-72
2021/01/05 05:30:32;;;;;;;2.28;1.10;;;2.90;92.00;;;;;;5114340;28;20063;-71
2021/01/05 05:33:00;;;;;;;2.20;1.17;;;3.00;92.00;;;;;;5114446;28;20093;-72
2021/01/05 05:35:46;;;;;;;1.48;0.90;;;2.90;92.00;;;;;;5094893;28;20122;-72
2021/01/05 05:38:48;;;;;;;1.52;0.80;;;3.00;92.00;;;;;;5114463;28;20035;-72
2021/01/05 05:41:32;;;;;;;2.15;0.70;;;3.00;92.00;;;;;;5099502;28;20049;-72
2021/01/05 05:44:15;;;;;;;1.60;0.70;;;2.90;92.00;;;;;;5097234;28;20042;-72
2021/01/05 05:46:47;;;;;;;2.10;0.75;;;2.90;92.00;;;;;;5114784;28;20036;-72
2021/01/05 05:49:34;;;;;;;1.10;0.80;;;2.90;92.00;;;;;;5114291;28;20047;-72
2021/01/05 05:52:07;;;;;;;1.63;0.80;;;2.90;92.00;;;;;;5095626;28;20051;-72
2021/01/05 05:54:34;;;;;;;0.95;0.70;;;3.00;92.00;;;;;;5113935;28;20433;-72
2021/01/05 05:57:21;;;;;;;1.42;0.82;;;3.00;92.00;;;;;;5113967;28;20441;-72
2021/01/05 05:59:56;;;;;;;0.77;0.68;;;3.00;92.00;;;;;;5113957;28;20040;-72
2021/01/05 06:02:23;;;;;;;1.10;0.75;;;3.00;92.00;;;;;;5096055;28;20120;-72
2021/01/05 06:04:52;;;;;;;1.25;0.70;;;3.00;92.00;;;;;;5113868;28;20056;-72
2021/01/05 06:07:17;;;;;;;0.95;0.65;;;3.00;92.00;;;;;;5113998;28;20040;-72
2021/01/05 06:09:43;;;;;;;1.50;0.90;;;3.00;92.00;;;;;;5094170;28;20131;-73
2021/01/05 06:12:09;;;;;;;1.25;0.70;;;3.00;92.00;;;;;;5095689;28;20039;-72
2021/01/05 06:14:35;;;;;;;1.45;0.73;;;3.10;92.00;;;;;;5113869;28;20412;-72
2021/01/05 06:17:00;;;;;;;1.45;0.73;;;3.00;92.30;;;;;;5114095;28;20039;-72
2021/01/05 06:19:26;;;;;;;1.73;0.88;;;3.00;92.00;;;;;;5114050;28;20439;-73
2021/01/05 06:21:52;;;;;;;0.95;0.65;;;3.00;92.00;;;;;;5113759;28;20063;-72
2021/01/05 06:24:17;;;;;;;1.52;0.80;;;3.00;92.00;;;;;;5078555;28;20047;-72
2021/01/05 06:26:43;;;;;;;1.73;0.90;;;3.10;92.00;;;;;;5114144;28;20046;-73
2021/01/05 06:29:09;;;;;;;1.65;0.70;;;3.00;91.90;;;;;;5113955;28;20405;-72
2021/01/05 06:31:35;;;;;;;1.33;0.90;;;3.00;91.90;;;;;;5113320;28;20142;-72
2021/01/05 06:34:00;;;;;;;1.67;0.88;;;3.10;92.00;;;;;;5113338;28;20035;-72
2021/01/05 06:36:26;;;;;;;0.90;0.77;;;3.10;92.00;;;;;;5113415;28;20035;-72
2021/01/05 06:38:52;;;;;;;1.73;0.88;;;3.00;92.00;;;;;;5094438;28;20092;-72
2021/01/05 06:41:19;;;;;;;1.13;0.88;;;3.00;91.90;;;;;;5112718;28;20382;-72
2021/01/05 06:43:45;;;;;;;1.75;0.90;;;3.00;91.90;;;;;;5113610;28;20046;-72
2021/01/05 06:46:11;;;;;;;1.45;0.90;;;3.10;92.00;;;;;;5113212;28;20374;-72
2021/01/05 06:48:37;;;;;;;1.65;0.90;;;3.10;92.00;;;;;;5113617;28;20032;-72
2021/01/05 06:51:06;;;;;;;1.30;0.90;;;3.00;91.90;;;;;;5113239;28;20046;-72
2021/01/05 06:53:31;;;;;;;1.15;0.73;;;3.10;92.00;;;;;;5095371;28;20100;-72
2021/01/05 06:55:59;;;;;;;1.55;0.95;;;3.10;92.00;;;;;;5113486;28;20122;-73
2021/01/05 06:58:25;;;;;;;1.58;0.82;;;3.20;92.00;;;;;;5113042;28;20043;-72
2021/01/05 07:00:50;;;;;;;1.60;0.85;;;3.10;92.00;;;;;;5113611;28;20512;-72
2021/01/05 07:03:16;;;;;;;2.83;0.98;;;3.10;92.00;;;;;;5113630;28;20039;-72
2021/01/05 07:05:41;;;;;;;2.03;1.02;;;3.10;92.00;;;;;;5094991;28;20374;-71
2021/01/05 07:08:07;;;;;;;1.65;0.90;;;3.00;91.90;;;;;;5113438;28;20043;-72
2021/01/05 07:10:33;;;;;;;2.53;1.20;;;3.10;92.00;;;;;;5113563;28;20032;-72
2021/01/05 07:12:59;;;;;;;2.15;1.20;;;3.00;91.90;;;;;;5113391;28;20426;-72
2021/01/05 07:15:24;;;;;;;2.55;1.23;;;3.10;92.00;;;;;;5112970;28;20375;-72
2021/01/05 07:17:50;;;;;;;2.40;1.20;;;3.10;92.00;;;;;;5094764;28;20040;-72
2021/01/05 07:20:16;;;;;;;2.47;1.40;;;3.00;91.90;;;;;;5112855;28;20092;-72
2021/01/05 07:22:43;;;;;;;2.72;1.10;;;3.00;91.90;;;;;;5112543;28;20455;-72
2021/01/05 07:25:12;;;;;;;2.22;1.10;;;3.20;92.00;;;;;;5112525;28;20040;-73
2021/01/05 07:27:38;;;;;;;2.08;0.98;;;3.10;91.90;;;;;;5112756;28;20124;-73
2021/01/05 07:30:07;;;;;;;1.38;0.82;;;3.10;91.90;;;;;;5113228;28;20046;-72
2021/01/05 07:32:32;;;;;;;1.85;1.13;;;3.10;92.20;;;;;;5112488;28;20397;-71
2021/01/05 07:34:58;;;;;;;2.10;0.98;;;3.10;91.90;;;;;;5112946;28;20039;-72
2021/01/05 07:37:28;;;;;;;1.48;0.90;;;3.10;91.90;;;;;;5112445;28;20122;-72
2021/01/05 07:39:55;;;;;;;2.22;0.95;;;3.10;91.90;;;;;;5112481;28;20043;-69
2021/01/05 07:42:25;;;;;;;1.92;1.00;;;3.10;91.90;;;;;;5112433;28;20035;-69
2021/01/05 07:44:53;;;;;;;2.00;1.00;;;3.10;91.90;;;;;;5092368;28;20051;-69
2021/01/05 07:47:21;;;;;;;1.67;0.80;;;3.10;91.90;;;;;;5112243;28;20043;-69
2021/01/05 07:49:48;;;;;;;1.45;0.90;;;3.10;91.90;;;;;;5112348;28;20067;-70
2021/01/05 07:52:18;;;;;;;0.93;0.70;;;3.20;91.90;;;;;;5112833;28;20043;-70
2021/01/05 07:54:44;;;;;;;1.95;1.17;;;3.20;92.00;;;;;;5115979;28;20941;-70
2021/01/05 07:57:10;;;;;;;1.70;0.93;;;3.20;91.90;;;;;;5116181;28;20435;-70
2021/01/05 07:59:35;;;;;;;1.88;1.20;;;3.20;91.90;;;;;;5115913;28;20039;-70
2021/01/05 08:02:01;;;;;;;2.60;1.17;;;3.10;91.90;;;;;;5116040;28;20122;-70
2021/01/05 08:04:27;;;;;;;2.30;1.17;;;3.20;91.90;;;;;;5116018;28;20516;-70
2021/01/05 08:06:52;;;;;;;1.70;1.00;;;3.20;91.90;;;;;;5115890;28;20104;-70
2021/01/05 08:09:18;;;;;;;1.80;1.10;;;3.20;91.90;;;;;;5115883;28;20101;-70
2021/01/05 08:11:44;;;;;;;2.17;1.17;;;3.10;91.90;;;;;;5115243;28;20044;-71
2021/01/05 08:14:09;;;;;;;2.13;1.15;;;3.20;91.90;;;;;;5095690;28;20402;-71
2021/01/05 08:16:35;;;;;;;1.95;1.00;;;3.20;91.90;;;;;;5115326;28;20122;-71
2021/01/05 08:19:01;;;;;;;1.80;1.00;;;3.20;91.90;;;;;;5115100;28;20046;-71
2021/01/05 08:21:26;;;;;;;2.10;1.05;;;3.20;91.90;;;;;;5115732;28;20122;-74
2021/01/05 08:23:53;;;;;;;2.08;1.10;;;3.20;91.90;;;;;;5115804;28;20101;-75
2021/01/05 08:26:19;;;;;;;2.42;1.00;;;3.20;92.00;;;;;;5115525;28;20401;-74
2021/01/05 08:28:46;;;;;;;2.60;1.42;;;3.20;91.90;;;;;;5115545;28;20043;-74
2021/01/05 08:31:13;;;;;;;1.50;0.95;;;3.20;91.90;;;;;;5115648;28;20043;-72
2021/01/05 08:33:39;;;;;;;2.25;1.23;;;3.20;91.90;;;;;;5115818;28;20032;-75
2021/01/05 08:36:06;;;;;;;1.95;1.10;;;3.20;91.90;;;;;;5115197;28;20051;-75
2021/01/05 08:38:32;;;;;;;2.35;1.15;;;3.20;91.90;;;;;;5096175;28;20040;-74
2021/01/05 08:40:58;;;;;;;3.17;1.40;;;3.30;92.20;;;;;;5115394;28;20035;-73
2021/01/05 08:43:23;;;;;;;3.50;1.40;;;3.30;91.90;;;;;;5080365;28;20115;-73
2021/01/05 08:45:49;;;;;;;2.25;1.15;;;3.20;91.90;;;;;;5115693;28;20151;-73
2021/01/05 08:48:15;;;;;;;3.05;1.50;;;3.20;91.90;;;;;;5115288;28;20043;-73
2021/01/05 08:50:40;;;;;;;3.92;1.83;;;3.20;91.90;;;;;;5114663;28;20397;-74
2021/01/05 08:53:09;;;;;;;2.58;1.30;;;3.20;91.90;;;;;;5114736;28;20050;-73
2021/01/05 08:55:36;;;;;;;2.03;1.30;;;3.20;91.90;;;;;;5114852;28;20038;-74
2021/01/05 08:58:03;;;;;;;1.90;1.20;;;3.20;91.80;;;;;;5114788;28;20039;-73
2021/01/05 09:00:28;;;;;;;2.22;1.20;;;3.20;91.80;;;;;;5115015;28;20039;-73
2021/01/05 09:02:54;;;;;;;2.90;1.50;;;3.20;91.80;;;;;;5114956;28;20130;-74
2021/01/05 09:05:20;;;;;;;1.67;1.10;;;3.30;91.90;;;;;;5114395;28;20035;-73
2021/01/05 09:07:46;;;;;;;2.22;1.25;;;3.30;91.80;;;;;;5114953;28;20055;-74
2021/01/05 09:10:20;;;;;;;2.72;1.23;;;3.30;91.80;;;;;;5079695;28;20031;-73
2021/01/05 09:12:45;;;;;;;1.80;1.10;;;3.30;91.80;;;;;;5114634;28;20385;-74
2021/01/05 09:15:15;;;;;;;2.72;1.23;;;3.40;91.80;;;;;;5096773;28;20031;-74
2021/01/05 09:17:44;;;;;;;2.75;1.50;;;3.50;91.80;;;;;;5114880;28;20160;-74
2021/01/05 09:20:14;;;;;;;2.75;1.45;;;3.30;92.00;;;;;;5096826;28;20040;-74
2021/01/05 09:22:39;;;;;;;3.05;1.63;;;3.30;91.70;;;;;;5114877;28;20048;-74
2021/01/05 09:25:05;;;;;;;3.03;1.50;;;3.30;91.70;;;;;;5114453;28;20046;-75
2021/01/05 09:27:31;;;;;;;2.25;1.13;;;3.40;91.80;;;;;;5115072;28;20042;-73
2021/01/05 09:29:57;;;;;;;2.60;1.30;;;3.50;91.80;;;;;;5114580;28;20040;-73
2021/01/05 09:32:22;;;;;;;3.08;1.40;;;3.40;91.70;;;;;;5115028;28;20071;-74
2021/01/05 09:34:48;;;;;;;2.20;1.20;;;3.40;91.90;;;;;;5114560;28;20051;-73
2021/01/05 09:37:14;;;;;;;1.80;1.10;;;3.50;91.70;;;;;;5115126;28;20423;-74
2021/01/05 09:39:39;;;;;;;2.13;1.30;;;3.50;91.70;;;;;;5114522;28;20101;-74
2021/01/05 09:42:06;;;;;;;3.00;1.20;;;3.50;91.70;;;;;;5115004;28;20039;-74
2021/01/05 09:44:32;;;;;;;2.05;1.20;;;3.50;91.70;;;;;;5115003;28;20465;-72
2021/01/05 09:47:00;;;;;;;2.08;1.30;;;3.50;91.70;;;;;;5114434;28;20047;-73
2021/01/05 09:49:27;;;;;;;2.38;1.30;;;3.50;91.70;;;;;;5114542;28;20039;-73
2021/01/05 09:51:57;;;;;;;2.97;1.38;;;3.50;91.70;;;;;;5114590;28;20216;-74
2021/01/05 09:54:23;;;;;;;2.90;1.50;;;3.50;91.70;;;;;;5114782;28;20038;-73
2021/01/05 09:56:51;;;;;;;1.80;1.02;;;3.50;91.70;;;;;;5114167;28;20028;-72
2021/01/05 09:59:18;;;;;;;2.45;1.27;;;3.50;91.70;;;;;;5114346;28;20319;-73
2021/01/05 10:01:43;;;;;;;2.15;1.10;;;3.50;91.70;;;;;;5114192;28;20039;-76
2021/01/05 10:04:09;;;;;;;1.70;1.00;;;3.40;91.70;;;;;;5061208;28;20044;-75
2021/01/05 10:06:35;;;;;;;3.70;1.60;;;3.50;91.70;;;;;;5095341;28;20035;-75
2021/01/05 10:09:08;;;;;;;2.58;1.27;;;3.50;91.70;;;;;;5113955;28;20478;-75
2021/01/05 10:11:39;;;;;;;2.20;1.25;;;3.40;91.70;;;;;;5096332;28;20043;-76
2021/01/05 10:14:05;;;;;;;1.38;0.98;;;3.50;91.70;;;;;;5113964;28;20043;-76
2021/01/05 10:16:31;;;;;;;1.60;1.17;;;3.50;91.70;;;;;;5094699;28;20044;-76
2021/01/05 10:18:59;;;;;;;2.20;1.13;;;3.50;91.60;;;;;;5113736;28;20500;-77
2021/01/05 10:21:42;;;;;;;2.08;1.17;;;3.50;91.60;;;;;;5113742;28;20063;-77
2021/01/05 10:24:14;;;;;;;2.85;1.40;;;3.50;91.60;;;;;;5050652;28;20487;-76
2021/01/05 10:26:53;;;;;;;1.92;1.20;;;3.60;91.60;;;;;;5033154;28;20554;-75
2021/01/05 10:29:20;;;;;;;1.80;1.27;;;3.50;91.60;;;;;;5051064;28;20115;-75
2021/01/05 10:31:47;;;;;;;1.33;0.95;;;3.60;91.60;;;;;;5051299;28;20138;-73
2021/01/05 10:34:15;;;;;;;1.42;0.93;;;3.50;91.60;;;;;;5034355;28;20053;-74
2021/01/05 10:36:40;;;;;;;1.75;1.10;;;3.60;91.60;;;;;;5050701;28;20041;-75
2021/01/05 10:39:09;;;;;;;2.50;1.10;;;3.60;91.60;;;;;;5050953;28;20464;-75
2021/01/05 10:41:40;;;;;;;2.17;1.35;;;3.60;91.50;;;;;;5050739;28;20057;-76
2021/01/05 10:44:07;;;;;;;2.20;1.13;;;3.60;91.50;;;;;;5050794;28;20045;-76
2021/01/05 10:46:33;;;;;;;3.53;1.75;;;3.60;91.50;;;;;;5050303;28;20071;-76
2021/01/05 10:48:59;;;;;;;2.58;1.60;;;3.70;91.50;;;;;;5017226;28;20487;-75
2021/01/05 10:51:24;;;;;;;1.67;1.23;;;3.60;91.50;;;;;;5050340;28;20470;-73
2021/01/05 10:53:50;;;;;;;2.00;1.33;;;3.50;91.50;;;;;;5050454;28;20116;-75
2021/01/05 10:56:17;;;;;;;2.58;1.58;;;3.60;91.50;;;;;;5050792;28;20036;-75
2021/01/05 10:58:43;;;;;;;2.47;1.45;;;3.60;91.50;;;;;;5033798;28;20045;-75
2021/01/05 11:01:09;;;;;;;3.33;1.50;;;3.60;91.50;;;;;;5070619;28;20422;-75
2021/01/05 11:03:37;;;;;;;2.45;1.50;;;3.60;91.50;;;;;;5113392;28;20058;-76
2021/01/05 11:06:06;;;;;;;2.22;1.30;;;3.60;91.50;;;;;;5093393;28;20055;-77
2021/01/05 11:08:33;;;;;;;2.22;1.23;;;3.70;91.50;;;;;;5093743;28;20051;-75
2021/01/05 11:11:03;;;;;;;1.73;1.10;;;3.60;91.40;;;;;;5094620;28;20035;-79
2021/01/05 11:13:31;;;;;;;2.55;1.20;;;3.70;91.50;;;;;;5112025;28;20484;-76
2021/01/05 11:15:56;;;;;;;1.95;1.17;;;3.60;91.40;;;;;;5094939;28;20040;-75
2021/01/05 11:18:22;;;;;;;2.30;1.08;;;3.60;91.40;;;;;;5113121;28;20039;-76
2021/01/05 11:20:48;;;;;;;2.80;1.50;;;3.60;91.40;;;;;;5095346;28;20035;-75
2021/01/05 11:23:14;;;;;;;3.25;1.42;;;3.60;91.40;;;;;;5113195;28;20497;-77
2021/01/05 11:25:40;;;;;;;2.30;1.50;;;3.70;91.40;;;;;;5113091;28;20047;-76
2021/01/05 11:28:06;;;;;;;2.05;1.10;;;3.60;91.40;;;;;;5112968;28;20047;-76
2021/01/05 11:30:33;;;;;;;2.33;1.25;;;3.60;91.40;;;;;;5113269;28;20093;-76
2021/01/05 11:32:58;;;;;;;2.17;1.30;;;3.60;91.40;;;;;;5113231;28;20139;-76
2021/01/05 11:35:24;;;;;;;1.77;1.10;;;3.60;91.40;;;;;;5093519;28;20072;-76
2021/01/05 11:37:50;;;;;;;2.00;1.15;;;3.60;91.40;;;;;;5113067;28;20035;-76
2021/01/05 11:40:18;;;;;;;2.00;1.20;;;3.70;91.40;;;;;;5112997;28;20039;-76
2021/01/05 11:42:44;;;;;;;2.03;1.30;;;3.60;91.40;;;;;;5112528;28;20048;-76
2021/01/05 11:45:12;;;;;;;2.28;1.33;;;3.70;91.40;;;;;;5112367;28;20103;-76
2021/01/05 11:47:38;;;;;;;1.38;0.98;;;3.70;91.40;;;;;;5112395;28;20042;-76
2021/01/05 11:50:06;;;;;;;2.47;1.50;;;3.70;91.40;;;;;;5112371;28;20043;-76
2021/01/05 11:52:32;;;;;;;1.70;1.13;;;3.70;91.40;;;;;;5112520;28;20047;-77
2021/01/05 11:55:00;;;;;;;1.90;1.02;;;3.70;91.40;;;;;;5093393;28;20532;-76
2021/01/05 11:57:26;;;;;;;2.35;0.98;;;3.70;91.40;;;;;;5078072;28;20143;-76
2021/01/05 11:59:52;;;;;;;2.15;1.10;;;3.70;91.40;;;;;;5112745;28;20067;-74
2021/01/05 12:02:17;;;;;;;2.03;0.88;;;3.80;91.40;;;;;;5112197;28;20041;-73
2021/01/05 12:04:43;;;;;;;1.65;1.10;;;3.80;91.40;;;;;;5093876;28;20050;-73
2021/01/05 12:07:09;;;;;;;2.33;1.27;;;3.80;91.40;;;;;;5112433;28;20043;-74
2021/01/05 12:09:34;;;;;;;2.15;1.27;;;3.80;91.40;;;;;;5112297;28;20115;-74
2021/01/05 12:12:03;;;;;;;2.58;1.48;;;3.80;91.30;;;;;;5094215;28;20126;-74
2021/01/05 12:14:29;;;;;;;2.10;1.10;;;3.80;91.40;;;;;;5112254;28;20040;-75
2021/01/05 12:16:58;;;;;;;1.80;1.10;;;3.80;91.40;;;;;;5112196;28;20028;-74
2021/01/05 12:19:27;;;;;;;1.73;0.90;;;3.80;91.40;;;;;;5092353;28;20482;-76
2021/01/05 12:21:59;;;;;;;1.90;1.10;;;3.80;91.30;;;;;;5075573;28;20040;-75
2021/01/05 12:24:28;;;;;;;2.15;1.13;;;3.80;91.30;;;;;;5094485;28;20039;-75
2021/01/05 12:26:59;;;;;;;2.60;1.23;;;3.80;91.40;;;;;;5111926;28;20096;-76
2021/01/05 12:29:28;;;;;;;3.13;1.33;;;3.90;91.40;;;;;;5112667;28;20113;-75
2021/01/05 12:31:58;;;;;;;2.33;1.38;;;3.80;91.30;;;;;;5077424;28;20039;-75
2021/01/05 12:34:30;;;;;;;2.25;1.30;;;3.80;91.30;;;;;;5112328;28;20040;-76
2021/01/05 12:36:56;;;;;;;2.20;1.17;;;3.80;91.40;;;;;;5112452;28;20582;-75
2021/01/05 12:39:27;;;;;;;3.00;1.52;;;3.80;91.40;;;;;;5113166;28;20033;-75
2021/01/05 12:41:53;;;;;;;1.90;1.23;;;3.80;91.40;;;;;;5097779;28;20126;-76
2021/01/05 12:44:22;;;;;;;3.20;1.40;;;3.80;91.40;;;;;;5096433;28;20051;-75
2021/01/05 12:46:50;;;;;;;2.60;1.30;;;3.80;91.40;;;;;;5115674;28;20052;-76
2021/01/05 12:49:15;;;;;;;3.00;1.55;;;3.80;91.40;;;;;;5079897;28;20435;-73
2021/01/05 12:51:45;;;;;;;4.13;1.90;;;3.80;91.40;;;;;;5115066;28;20035;-74
2021/01/05 12:54:25;;;;;;;3.55;1.85;;;3.80;91.30;;;;;;5097299;28;20121;-75
2021/01/05 12:56:55;;;;;;;2.55;1.42;;;3.80;91.30;;;;;;5115565;28;20075;-74
2021/01/05 12:59:22;;;;;;;3.75;1.83;;;3.80;91.30;;;;;;5115406;28;20104;-74
2021/01/05 13:01:56;;;;;;;2.17;1.17;;;3.90;91.30;;;;;;5095655;28;20502;-76
2021/01/05 13:04:22;;;;;;;4.30;1.98;;;3.90;91.30;;;;;;5115365;28;20138;-75
2021/01/05 13:06:48;;;;;;;3.75;2.00;;;3.80;91.30;;;;;;5114924;28;20503;-75
2021/01/05 13:09:16;;;;;;;2.95;1.73;;;3.90;91.30;;;;;;5115543;28;20122;-77
2021/01/05 13:11:52;;;;;;;3.72;1.67;;;3.90;91.30;;;;;;5011735;28;20046;-76
2021/01/05 13:14:20;;;;;;;2.67;1.50;;;3.80;91.30;;;;;;5011257;28;20060;-75